createdAt,value
2018-12-21T00:00:57.846Z,13.47
2018-12-21T00:03:24.060Z,12.70
2018-12-21T00:05:50.427Z,12.63
2018-12-21T00:08:16.673Z,13.47
2018-12-21T00:10:43.055Z,13.70
2018-12-21T00:13:09.324Z,13.40
2018-12-21T00:15:35.810Z,13.03
2018-12-21T00:18:02.293Z,13.60
2018-12-21T00:20:29.927Z,12.80
2018-12-21T00:22:56.222Z,14.70
2018-12-21T00:25:22.628Z,15.07
2018-12-21T00:27:49.649Z,13.70
2018-12-21T00:30:17.922Z,13.70
2018-12-21T00:32:50.384Z,14.40
2018-12-21T00:35:22.978Z,13.60
2018-12-21T00:37:55.523Z,13.50
2018-12-21T00:40:28.060Z,13.83
2018-12-21T00:46:00.173Z,15.10
2018-12-21T00:48:26.555Z,13.93
2018-12-21T00:50:52.833Z,14.30
2018-12-21T00:53:19.744Z,14.37
2018-12-21T00:55:46.136Z,13.97
2018-12-21T00:58:12.481Z,13.40
2018-12-21T01:00:38.834Z,13.37
2018-12-21T01:03:06.631Z,13.90
2018-12-21T01:05:33.334Z,15.70
2018-12-21T01:07:59.636Z,13.87
2018-12-21T01:10:26.024Z,13.93
2018-12-21T01:12:52.418Z,13.43
2018-12-21T01:15:18.899Z,14.37
2018-12-21T01:17:45.298Z,12.70
2018-12-21T01:20:11.878Z,14.00
2018-12-21T01:22:38.227Z,13.40
2018-12-21T01:25:04.720Z,14.90
2018-12-21T01:27:31.154Z,14.87
2018-12-21T01:29:57.435Z,14.23
2018-12-21T01:32:23.785Z,14.87
2018-12-21T01:34:50.139Z,13.77
2018-12-21T01:37:16.555Z,14.20
2018-12-21T01:39:42.868Z,15.03
2018-12-21T01:42:09.160Z,13.43
2018-12-21T01:44:35.387Z,14.33
2018-12-21T01:47:01.726Z,12.53
2018-12-21T01:49:28.090Z,13.43
2018-12-21T01:51:54.411Z,13.07
2018-12-21T01:54:20.742Z,11.60
2018-12-21T01:56:47.084Z,13.67
2018-12-21T01:59:13.400Z,12.50
2018-12-21T02:01:39.774Z,13.20
2018-12-21T02:04:06.083Z,11.47
2018-12-21T02:06:32.382Z,12.33
2018-12-21T02:08:58.727Z,11.33
2018-12-21T02:11:25.064Z,10.30
2018-12-21T02:13:51.274Z,10.03
2018-12-21T02:16:17.599Z,10.17
2018-12-21T02:18:43.937Z,9.17
2018-12-21T02:21:10.418Z,9.83
2018-12-21T02:23:36.775Z,8.93
2018-12-21T02:26:03.202Z,9.10
2018-12-21T02:28:29.555Z,9.33
2018-12-21T02:30:55.836Z,9.77
2018-12-21T02:33:22.219Z,9.87
2018-12-21T02:35:48.538Z,8.50
2018-12-21T02:38:14.918Z,9.30
2018-12-21T02:40:41.201Z,9.47
2018-12-21T02:43:07.554Z,8.77
2018-12-21T02:45:33.765Z,10.37
2018-12-21T02:48:00.110Z,8.80
2018-12-21T02:50:26.432Z,8.67
2018-12-21T02:52:52.758Z,8.80
2018-12-21T02:55:19.031Z,10.00
2018-12-21T02:57:45.379Z,8.23
2018-12-21T03:00:11.649Z,9.43
2018-12-21T03:02:38.876Z,8.20
2018-12-21T03:05:05.360Z,8.40
2018-12-21T03:07:31.661Z,8.40
2018-12-21T03:09:58.059Z,8.30
2018-12-21T03:12:24.301Z,7.80
2018-12-21T03:14:50.589Z,7.90
2018-12-21T03:17:16.842Z,8.47
2018-12-21T03:19:43.083Z,8.57
2018-12-21T03:22:14.649Z,8.60
2018-12-21T03:24:37.666Z,8.73
2018-12-21T03:29:56.375Z,9.40
2018-12-21T03:32:22.823Z,9.63
2018-12-21T03:34:49.355Z,9.70
2018-12-21T03:37:15.740Z,9.73
2018-12-21T03:39:41.970Z,9.40
2018-12-21T03:42:08.251Z,9.10
2018-12-21T03:44:34.526Z,9.90
2018-12-21T03:47:00.776Z,9.90
2018-12-21T03:49:27.717Z,9.93
2018-12-21T03:51:53.992Z,10.37
2018-12-21T03:54:20.417Z,10.50
2018-12-21T03:56:46.945Z,10.53
2018-12-21T03:59:13.315Z,11.40
2018-12-21T04:01:39.753Z,11.77
2018-12-21T04:04:07.122Z,11.20
2018-12-21T04:06:33.351Z,11.63
2018-12-21T04:08:59.642Z,11.00
2018-12-21T04:11:25.946Z,11.03
2018-12-21T04:13:52.299Z,10.40
2018-12-21T04:16:19.815Z,10.40
2018-12-21T04:18:46.322Z,9.93
2018-12-21T04:21:12.663Z,9.63
2018-12-21T04:23:39.951Z,10.40
2018-12-21T04:26:06.202Z,10.33
2018-12-21T04:28:32.435Z,11.50
2018-12-21T04:30:58.738Z,11.10
2018-12-21T04:33:24.930Z,10.87
2018-12-21T04:35:51.213Z,10.60
2018-12-21T04:38:17.554Z,11.30
2018-12-21T04:40:43.890Z,10.50
2018-12-21T04:43:10.219Z,10.47
2018-12-21T04:45:36.728Z,11.30
2018-12-21T04:48:03.211Z,11.60
2018-12-21T04:50:29.542Z,11.83
2018-12-21T04:52:55.891Z,11.97
2018-12-21T04:55:22.216Z,14.43
2018-12-21T04:57:48.533Z,11.60
2018-12-21T05:00:14.968Z,11.37
2018-12-21T05:02:41.351Z,11.67
2018-12-21T05:05:07.580Z,12.23
2018-12-21T05:07:34.013Z,12.20
2018-12-21T05:10:00.402Z,11.87
2018-12-21T05:12:26.609Z,12.47
2018-12-21T05:14:52.923Z,11.33
2018-12-21T05:17:19.242Z,11.80
2018-12-21T05:19:45.721Z,12.53
2018-12-21T05:22:12.106Z,11.67
2018-12-21T05:24:38.443Z,12.53
2018-12-21T05:27:05.575Z,12.20
2018-12-21T05:29:31.942Z,13.37
2018-12-21T05:31:59.417Z,13.30
2018-12-21T05:34:25.798Z,12.30
2018-12-21T05:36:52.129Z,13.50
2018-12-21T05:39:18.344Z,13.00
2018-12-21T05:41:44.561Z,13.47
2018-12-21T05:44:11.019Z,13.73
2018-12-21T05:46:37.231Z,13.77
2018-12-21T05:49:03.525Z,13.27
2018-12-21T05:51:29.798Z,13.83
2018-12-21T05:53:56.153Z,12.87
2018-12-21T05:56:22.469Z,15.50
2018-12-21T05:58:48.872Z,15.17
2018-12-21T06:01:15.555Z,15.10
2018-12-21T06:03:41.878Z,13.63
2018-12-21T06:06:08.204Z,14.37
2018-12-21T06:08:35.472Z,15.17
2018-12-21T06:11:01.869Z,14.30
2018-12-21T06:13:28.100Z,14.30
2018-12-21T06:15:54.494Z,13.70
2018-12-21T06:18:21.495Z,15.07
2018-12-21T06:20:47.821Z,14.60
2018-12-21T06:23:14.025Z,14.10
2018-12-21T06:25:40.327Z,15.43
2018-12-21T06:28:06.709Z,15.10
2018-12-21T06:30:33.065Z,14.43
2018-12-21T06:32:59.368Z,14.83
2018-12-21T06:35:26.080Z,15.00
2018-12-21T06:37:52.497Z,13.83
2018-12-21T06:40:18.790Z,13.10
2018-12-21T06:42:45.142Z,14.80
2018-12-21T06:45:11.449Z,13.77
2018-12-21T06:47:37.795Z,14.00
2018-12-21T06:50:05.392Z,15.03
2018-12-21T06:52:31.754Z,15.20
2018-12-21T06:54:57.979Z,15.87
2018-12-21T06:57:24.207Z,21.83
2018-12-21T06:59:50.479Z,16.57
2018-12-21T07:02:16.867Z,13.70
2018-12-21T07:04:43.148Z,13.87
2018-12-21T07:07:09.478Z,15.60
2018-12-21T07:09:35.676Z,13.83
2018-12-21T07:12:01.940Z,14.17
2018-12-21T07:14:28.173Z,15.00
2018-12-21T07:16:54.428Z,12.60
2018-12-21T07:19:20.988Z,13.07
2018-12-21T07:21:47.266Z,12.00
2018-12-21T07:24:13.476Z,12.13
2018-12-21T07:26:39.776Z,13.07
2018-12-21T07:29:05.982Z,12.00
2018-12-21T07:31:32.205Z,12.73
2018-12-21T07:33:58.459Z,12.43
2018-12-21T07:36:24.638Z,12.77
2018-12-21T07:38:50.916Z,12.67
2018-12-21T07:41:17.179Z,12.60
2018-12-21T07:43:43.885Z,11.70
2018-12-21T07:46:10.317Z,12.80
2018-12-21T07:48:36.538Z,13.07
2018-12-21T07:51:03.080Z,12.23
2018-12-21T07:53:35.750Z,11.20
2018-12-21T07:55:57.585Z,12.37
2018-12-21T07:58:23.779Z,12.03
2018-12-21T08:00:49.983Z,11.80
2018-12-21T08:03:16.175Z,14.20
2018-12-21T08:05:42.366Z,13.20
2018-12-21T08:08:08.568Z,13.10
2018-12-21T08:10:34.781Z,11.77
2018-12-21T08:13:01.106Z,12.87
2018-12-21T08:15:27.376Z,14.27
2018-12-21T08:17:53.721Z,13.10
2018-12-21T08:20:19.923Z,11.73
2018-12-21T08:22:46.133Z,13.30
2018-12-21T08:25:12.334Z,12.70
2018-12-21T08:27:38.559Z,12.40
2018-12-21T08:30:07.144Z,12.00
2018-12-21T08:32:33.453Z,12.87
2018-12-21T08:34:59.649Z,12.00
2018-12-21T08:37:25.865Z,11.97
2018-12-21T08:39:52.049Z,13.30
2018-12-21T08:42:18.244Z,11.70
2018-12-21T08:44:44.528Z,11.77
2018-12-21T08:47:10.742Z,12.00
2018-12-21T08:49:37.012Z,11.40
2018-12-21T08:52:03.245Z,10.93
2018-12-21T08:54:29.418Z,11.20
2018-12-21T08:56:55.673Z,11.00
2018-12-21T09:02:14.521Z,11.07
2018-12-21T09:04:40.772Z,9.80
2018-12-21T09:07:06.981Z,10.50
2018-12-21T09:09:33.310Z,10.43
2018-12-21T09:11:59.743Z,10.43
2018-12-21T09:14:26.072Z,10.90
2018-12-21T09:16:52.267Z,10.83
2018-12-21T09:19:19.189Z,10.83
2018-12-21T09:21:45.427Z,10.53
2018-12-21T09:24:11.615Z,10.90
2018-12-21T09:26:37.974Z,10.40
2018-12-21T09:29:04.204Z,11.30
2018-12-21T09:31:30.432Z,11.37
2018-12-21T09:33:56.718Z,11.03
2018-12-21T09:36:22.942Z,10.87
2018-12-21T09:38:49.163Z,11.40
2018-12-21T09:41:15.389Z,10.93
2018-12-21T09:43:41.645Z,11.53
2018-12-21T09:46:08.063Z,10.60
2018-12-21T09:48:34.349Z,11.33
2018-12-21T09:51:00.565Z,10.87
2018-12-21T09:53:27.470Z,10.77
2018-12-21T09:55:53.869Z,10.30
2018-12-21T09:58:20.065Z,11.27
2018-12-21T10:00:46.517Z,10.53
2018-12-21T10:03:12.742Z,11.40
2018-12-21T10:05:39.119Z,11.20
2018-12-21T10:08:05.417Z,10.40
2018-12-21T10:10:31.725Z,10.17
2018-12-21T10:12:57.960Z,10.00
2018-12-21T10:15:24.292Z,11.23
2018-12-21T10:17:50.671Z,9.83
2018-12-21T10:20:19.898Z,10.73
2018-12-21T10:22:45.994Z,10.00
2018-12-21T10:25:12.290Z,10.20
2018-12-21T10:27:38.511Z,10.17
2018-12-21T10:30:08.057Z,10.07
2018-12-21T10:32:34.366Z,10.30
2018-12-21T10:37:53.944Z,10.80
2018-12-21T10:40:20.173Z,10.13
2018-12-21T10:42:46.385Z,9.90
2018-12-21T10:45:12.681Z,9.93
2018-12-21T10:47:39.056Z,9.90
2018-12-21T10:50:08.016Z,9.70
2018-12-21T10:52:34.208Z,9.70
2018-12-21T10:55:00.452Z,9.27
2018-12-21T10:57:26.732Z,9.00
2018-12-21T10:59:52.960Z,8.90
2018-12-21T11:02:19.232Z,9.57
2018-12-21T11:04:45.448Z,9.87
2018-12-21T11:07:11.677Z,9.27
2018-12-21T11:09:38.078Z,9.87
2018-12-21T11:12:04.315Z,8.70
2018-12-21T11:14:30.495Z,8.67
2018-12-21T11:16:56.839Z,9.17
2018-12-21T11:19:23.080Z,8.80
2018-12-21T11:21:49.272Z,9.03
2018-12-21T11:24:15.586Z,9.03
2018-12-21T11:26:41.809Z,9.37
2018-12-21T11:29:08.006Z,8.93
2018-12-21T11:31:34.335Z,9.03
2018-12-21T11:34:00.624Z,9.50
2018-12-21T11:36:27.022Z,9.23
2018-12-21T11:38:53.212Z,9.60
2018-12-21T11:41:19.397Z,9.17
2018-12-21T11:43:45.663Z,7.97
2018-12-21T11:46:11.880Z,8.80
2018-12-21T11:48:38.077Z,8.60
2018-12-21T11:51:04.291Z,8.17
2018-12-21T11:53:30.484Z,7.97
2018-12-21T11:55:57.719Z,8.50
2018-12-21T11:58:23.903Z,8.80
2018-12-21T12:00:50.295Z,9.00
2018-12-21T12:03:16.484Z,8.90
2018-12-21T12:05:42.724Z,8.83
2018-12-21T12:08:08.929Z,8.80
2018-12-21T12:10:35.133Z,8.90
2018-12-21T12:13:01.391Z,10.20
2018-12-21T12:15:28.655Z,13.00
2018-12-21T12:17:55.190Z,8.60
2018-12-21T12:20:21.511Z,8.37
2018-12-21T12:22:47.802Z,8.80
2018-12-21T12:25:14.030Z,9.40
2018-12-21T12:27:40.258Z,8.70
2018-12-21T12:30:08.044Z,8.50
2018-12-21T12:32:34.290Z,8.80
2018-12-21T12:35:00.519Z,7.97
2018-12-21T12:37:27.349Z,8.73
2018-12-21T12:39:53.550Z,8.23
2018-12-21T12:42:19.772Z,8.07
2018-12-21T12:44:46.041Z,8.27
2018-12-21T12:47:12.227Z,8.63
2018-12-21T12:52:31.240Z,7.97
2018-12-21T12:55:02.740Z,8.73
2018-12-21T12:57:25.712Z,8.23
2018-12-21T12:59:51.902Z,8.50
2018-12-21T13:02:18.234Z,8.70
2018-12-21T13:04:44.746Z,8.93
2018-12-21T13:07:10.931Z,8.50
2018-12-21T13:09:37.135Z,9.00
2018-12-21T13:12:03.638Z,8.00
2018-12-21T13:14:30.069Z,8.67
2018-12-21T13:16:56.300Z,8.70
2018-12-21T13:19:23.422Z,8.37
2018-12-21T13:21:49.731Z,8.70
2018-12-21T13:24:15.970Z,8.13
2018-12-21T13:26:42.159Z,9.37
2018-12-21T13:29:08.406Z,8.93
2018-12-21T13:31:35.092Z,8.87
2018-12-21T13:34:01.299Z,8.50
2018-12-21T13:36:27.519Z,9.00
2018-12-21T13:38:53.786Z,9.27
2018-12-21T13:41:20.194Z,9.10
2018-12-21T13:43:46.383Z,9.27
2018-12-21T13:46:12.601Z,9.27
2018-12-21T13:48:38.816Z,8.40
2018-12-21T13:51:12.000Z,8.97
2018-12-21T13:53:38.245Z,8.20
2018-12-21T13:56:04.473Z,8.30
2018-12-21T13:58:30.701Z,8.40
2018-12-21T14:00:56.921Z,8.60
2018-12-21T14:03:23.234Z,8.70
2018-12-21T14:05:49.437Z,8.60
2018-12-21T14:08:15.619Z,9.23
2018-12-21T14:10:42.007Z,9.00
2018-12-21T14:13:08.225Z,8.90
2018-12-21T14:15:34.478Z,10.47
2018-12-21T14:18:00.708Z,8.70
2018-12-21T14:20:27.144Z,9.80
2018-12-21T14:22:54.188Z,9.87
2018-12-21T14:25:28.607Z,10.67
2018-12-21T14:27:48.629Z,10.20
2018-12-21T14:30:14.854Z,9.33
2018-12-21T14:32:41.355Z,9.30
2018-12-21T14:35:07.708Z,9.73
2018-12-21T14:37:34.006Z,10.03
2018-12-21T14:40:00.284Z,10.93
2018-12-21T14:42:27.881Z,10.07
2018-12-21T14:44:54.134Z,10.43
2018-12-21T14:47:21.946Z,11.00
2018-12-21T14:49:48.212Z,10.43
2018-12-21T14:52:14.721Z,10.40
2018-12-21T14:54:41.931Z,10.17
2018-12-21T14:57:08.410Z,12.87
2018-12-21T14:59:34.575Z,12.47
2018-12-21T15:02:00.887Z,12.80
2018-12-21T15:04:27.262Z,13.00
2018-12-21T15:06:53.482Z,13.90
2018-12-21T15:09:19.862Z,13.80
2018-12-21T15:11:46.065Z,12.30
2018-12-21T15:14:12.219Z,15.37
2018-12-21T15:16:38.457Z,17.70
2018-12-21T15:19:04.841Z,14.00
2018-12-21T15:21:31.043Z,14.40
2018-12-21T15:23:57.306Z,15.67
2018-12-21T15:26:23.554Z,21.13
2018-12-21T15:28:49.914Z,14.47
2018-12-21T15:31:16.144Z,15.80
2018-12-21T15:33:42.490Z,12.73
2018-12-21T15:36:08.747Z,13.73
2018-12-21T15:38:35.118Z,15.40
2018-12-21T15:41:01.377Z,13.00
2018-12-21T15:43:27.620Z,12.43
2018-12-21T15:45:53.838Z,13.83
2018-12-21T15:48:20.179Z,13.20
2018-12-21T15:50:47.160Z,12.63
2018-12-21T15:53:14.058Z,13.23
2018-12-21T15:55:40.291Z,12.30
2018-12-21T15:58:06.508Z,11.77
2018-12-21T16:00:32.682Z,13.40
2018-12-21T16:02:59.276Z,12.10
2018-12-21T16:05:25.666Z,15.47
2018-12-21T16:07:52.147Z,14.20
2018-12-21T16:10:19.041Z,14.70
2018-12-21T16:12:45.433Z,12.20
2018-12-21T16:15:11.659Z,12.90
2018-12-21T16:17:37.912Z,13.03
2018-12-21T16:20:07.674Z,12.83
2018-12-21T16:22:42.093Z,12.13
2018-12-21T16:25:02.274Z,11.23
2018-12-21T16:27:28.493Z,11.30
2018-12-21T16:29:54.679Z,11.17
2018-12-21T16:32:20.900Z,11.10
2018-12-21T16:34:47.025Z,10.50
2018-12-21T16:37:13.329Z,10.00
2018-12-21T16:39:39.564Z,10.80
2018-12-21T16:44:58.278Z,10.03
2018-12-21T16:47:24.725Z,10.40
2018-12-21T16:49:51.171Z,10.70
2018-12-21T16:52:17.465Z,10.13
2018-12-21T16:54:43.872Z,9.43
2018-12-21T16:57:10.118Z,8.80
2018-12-21T16:59:36.307Z,9.57
2018-12-21T17:02:02.667Z,9.60
2018-12-21T17:04:29.069Z,9.50
2018-12-21T17:06:55.268Z,8.47
2018-12-21T17:09:21.486Z,9.80
2018-12-21T17:11:47.775Z,8.90
2018-12-21T17:14:14.308Z,8.73
2018-12-21T17:16:40.554Z,9.80
2018-12-21T17:19:07.423Z,8.83
2018-12-21T17:21:34.019Z,8.90
2018-12-21T17:24:00.330Z,9.57
2018-12-21T17:26:26.695Z,9.33
2018-12-21T17:28:53.105Z,9.63
2018-12-21T17:31:19.354Z,9.00
2018-12-21T17:33:45.611Z,9.20
2018-12-21T17:36:12.008Z,10.10
2018-12-21T17:38:38.306Z,11.17
2018-12-21T17:41:04.648Z,9.43
2018-12-21T17:43:30.842Z,9.93
2018-12-21T17:45:57.066Z,9.43
2018-12-21T17:48:23.363Z,9.90
2018-12-21T17:50:49.728Z,9.70
2018-12-21T17:53:16.031Z,9.77
2018-12-21T17:55:42.280Z,10.30
2018-12-21T17:58:08.550Z,10.00
2018-12-21T18:00:35.399Z,10.83
2018-12-21T18:03:01.681Z,10.30
2018-12-21T18:05:27.915Z,14.50
2018-12-21T18:07:54.497Z,10.77
2018-12-21T18:10:21.658Z,11.67
2018-12-21T18:12:47.885Z,10.00
2018-12-21T18:15:14.328Z,10.60
2018-12-21T18:17:42.037Z,9.20
2018-12-21T18:20:09.231Z,10.27
2018-12-21T18:22:35.466Z,9.27
2018-12-21T18:25:04.322Z,10.93
2018-12-21T18:27:31.130Z,10.50
2018-12-21T18:29:57.603Z,10.97
2018-12-21T18:32:23.972Z,10.67
2018-12-21T18:34:50.655Z,10.30
2018-12-21T18:37:18.696Z,12.57
2018-12-21T18:39:45.512Z,11.37
2018-12-21T18:42:12.821Z,10.27
2018-12-21T18:44:40.067Z,10.53
2018-12-21T18:47:06.902Z,10.70
2018-12-21T18:49:33.286Z,9.80
2018-12-21T18:51:59.870Z,10.67
2018-12-21T18:54:26.826Z,10.33
2018-12-21T18:56:53.847Z,12.20
2018-12-21T18:59:20.143Z,11.33
2018-12-21T19:01:46.346Z,12.90
2018-12-21T19:07:05.657Z,11.43
2018-12-21T19:09:38.758Z,10.80
2018-12-21T19:12:05.077Z,11.80
2018-12-21T19:14:31.407Z,10.57
2018-12-21T19:16:57.622Z,11.63
2018-12-21T19:19:23.844Z,12.60
2018-12-21T19:21:50.090Z,11.33
2018-12-21T19:24:16.525Z,12.37
2018-12-21T19:26:43.827Z,10.90
2018-12-21T19:29:10.119Z,10.57
2018-12-21T19:31:36.474Z,11.20
2018-12-21T19:34:02.940Z,11.40
2018-12-21T19:36:29.233Z,10.60
2018-12-21T19:38:55.551Z,11.57
2018-12-21T19:41:21.969Z,11.57
2018-12-21T19:43:48.187Z,9.80
2018-12-21T19:46:14.471Z,10.40
2018-12-21T19:48:41.062Z,10.93
2018-12-21T19:51:07.689Z,10.73
2018-12-21T19:53:33.943Z,9.43
2018-12-21T19:56:04.237Z,10.17
2018-12-21T19:58:31.461Z,11.83
2018-12-21T20:00:58.775Z,9.90
2018-12-21T20:03:24.964Z,10.07
2018-12-21T20:05:51.158Z,10.63
2018-12-21T20:08:17.446Z,11.67
2018-12-21T20:10:43.677Z,9.90
2018-12-21T20:13:10.181Z,9.53
2018-12-21T20:15:36.366Z,10.60
2018-12-21T20:18:02.750Z,10.70
2018-12-21T20:20:29.191Z,10.17
2018-12-21T20:22:55.583Z,10.70
2018-12-21T20:25:22.273Z,11.63
2018-12-21T20:27:48.646Z,10.10
2018-12-21T20:30:15.935Z,11.20
2018-12-21T20:32:42.298Z,11.13
2018-12-21T20:35:08.850Z,10.50
2018-12-21T20:37:35.251Z,10.80
2018-12-21T20:40:03.016Z,11.27
2018-12-21T20:42:29.667Z,10.87
2018-12-21T20:44:56.067Z,11.43
2018-12-21T20:47:22.376Z,10.73
2018-12-21T20:49:48.577Z,10.63
2018-12-21T20:52:14.975Z,10.50
2018-12-21T20:54:41.306Z,10.83
2018-12-21T20:57:07.754Z,11.40
2018-12-21T20:59:33.977Z,10.47
2018-12-21T21:02:00.764Z,11.77
2018-12-21T21:04:27.080Z,10.50
2018-12-21T21:06:53.392Z,11.47
2018-12-21T21:09:19.654Z,10.13
2018-12-21T21:11:45.867Z,10.27
2018-12-21T21:17:04.502Z,10.23
2018-12-21T21:19:30.846Z,10.10
2018-12-21T21:21:57.109Z,10.10
2018-12-21T21:24:23.337Z,10.53
2018-12-21T21:26:49.575Z,10.37
2018-12-21T21:29:15.764Z,10.87
2018-12-21T21:31:42.070Z,10.60
2018-12-21T21:34:08.346Z,10.73
2018-12-21T21:36:34.665Z,10.53
2018-12-21T21:39:00.865Z,11.67
2018-12-21T21:41:27.291Z,10.67
2018-12-21T21:43:53.549Z,10.10
2018-12-21T21:46:19.941Z,10.03
2018-12-21T21:48:46.180Z,10.80
2018-12-21T21:51:12.460Z,10.83
2018-12-21T21:53:38.668Z,10.47
2018-12-21T21:56:04.988Z,10.07
2018-12-21T21:58:31.798Z,9.80
2018-12-21T22:00:58.141Z,11.00
2018-12-21T22:03:24.321Z,10.00
2018-12-21T22:05:50.544Z,8.40
2018-12-21T22:08:16.835Z,9.63
2018-12-21T22:10:43.092Z,8.30
2018-12-21T22:13:09.493Z,9.37
2018-12-21T22:15:35.686Z,10.20
2018-12-21T22:20:54.272Z,8.90
2018-12-21T22:23:20.511Z,10.10
2018-12-21T22:25:53.250Z,9.30
2018-12-21T22:28:15.681Z,9.77
2018-12-21T22:30:42.634Z,9.40
2018-12-21T22:33:08.819Z,9.07
2018-12-21T22:35:35.192Z,10.53
2018-12-21T22:38:01.487Z,8.90
2018-12-21T22:40:27.791Z,8.77
2018-12-21T22:42:54.739Z,7.60
2018-12-21T22:45:21.037Z,8.57
2018-12-21T22:47:47.315Z,8.83
2018-12-21T22:50:13.885Z,7.87
2018-12-21T22:52:40.310Z,9.63
2018-12-21T22:55:06.847Z,9.10
2018-12-21T22:57:33.945Z,9.00
2018-12-21T23:00:00.382Z,8.93
2018-12-21T23:02:26.720Z,8.83
2018-12-21T23:04:52.959Z,8.70
2018-12-21T23:07:20.450Z,8.57
2018-12-21T23:09:46.828Z,9.00
2018-12-21T23:12:13.561Z,8.80
2018-12-21T23:14:40.972Z,8.20
2018-12-21T23:17:07.424Z,8.30
2018-12-21T23:19:35.174Z,10.93
2018-12-21T23:22:01.807Z,8.40
2018-12-21T23:24:28.027Z,7.13
2018-12-21T23:26:54.267Z,7.73
2018-12-21T23:29:20.660Z,8.07
2018-12-21T23:31:47.468Z,8.03
2018-12-21T23:34:13.756Z,8.60
2018-12-21T23:36:39.998Z,9.93
2018-12-21T23:39:06.319Z,9.10
2018-12-21T23:41:32.671Z,8.00
2018-12-21T23:43:58.952Z,8.10
2018-12-21T23:46:25.727Z,9.70
2018-12-21T23:49:04.731Z,8.00
2018-12-21T23:51:31.024Z,8.70
2018-12-21T23:59:43.660Z,9.20
